Time;durP1;ratioP1;P1;durP2;ratioP2;P2;SDS_P1;SDS_P2;PMS_P1;PMS_P2;Temp;Humidity;BMP_temperature;BMP_pressure;BME280_temperature;BME280_humidity;BME280_pressure;Samples;Min_cycle;Max_cycle;Signal;HPM_P1;HPM_P2
2023/06/10 00:01:47;;;;;;;8.23;7.63;;;;;;;;;;5004385;28;20906;-47
2023/06/10 00:04:13;;;;;;;9.50;7.40;;;;;;;;;;5004044;28;20504;-49
2023/06/10 00:06:39;;;;;;;8.13;7.43;;;;;;;;;;5009250;28;20775;-47
2023/06/10 00:09:07;;;;;;;11.60;7.50;;;;;;;;;;5001348;28;20915;-47
2023/06/10 00:11:33;;;;;;;7.87;7.13;;;;;;;;;;5002162;28;20802;-46
2023/06/10 00:13:59;;;;;;;8.30;7.60;;;;;;;;;;5002198;28;20450;-47
2023/06/10 00:16:25;;;;;;;9.47;8.00;;;;;;;;;;5003948;28;20406;-47
2023/06/10 00:18:51;;;;;;;7.47;6.87;;;;;;;;;;5005464;28;20425;-49
2023/06/10 00:21:18;;;;;;;7.83;7.13;;;;;;;;;;5007130;28;20515;-49
2023/06/10 00:23:44;;;;;;;8.63;7.50;;;;;;;;;;5007359;28;20447;-49
2023/06/10 00:26:10;;;;;;;8.00;7.30;;;;;;;;;;5001805;28;20534;-47
2023/06/10 00:28:36;;;;;;;7.80;7.10;;;;;;;;;;4999963;28;20507;-47
2023/06/10 00:31:04;;;;;;;7.93;7.33;;;;;;;;;;5006651;28;20416;-48
2023/06/10 00:33:30;;;;;;;10.13;7.87;;;;;;;;;;5005532;28;20465;-48
2023/06/10 00:35:56;;;;;;;9.27;8.40;;;;;;;;;;5006166;28;20408;-48
2023/06/10 00:38:23;;;;;;;8.67;7.87;;;;;;;;;;5004789;28;20472;-47
2023/06/10 00:40:49;;;;;;;12.70;7.47;;;;;;;;;;4997689;28;20567;-49
2023/06/10 00:43:15;;;;;;;7.63;7.03;;;;;;;;;;5006175;28;20446;-49
2023/06/10 00:45:41;;;;;;;8.80;8.10;;;;;;;;;;5006482;28;20462;-49
2023/06/10 00:48:07;;;;;;;8.60;7.80;;;;;;;;;;5004565;28;20414;-48
2023/06/10 00:50:34;;;;;;;8.90;8.10;;;;;;;;;;5003279;28;21034;-48
2023/06/10 00:53:00;;;;;;;8.90;8.10;;;;;;;;;;5005578;28;20402;-49
2023/06/10 00:55:27;;;;;;;7.70;7.10;;;;;;;;;;5003214;28;20406;-50
2023/06/10 00:57:54;;;;;;;8.20;7.43;;;;;;;;;;5004050;28;20914;-49
2023/06/10 01:00:20;;;;;;;9.17;8.37;;;;;;;;;;5002800;28;20467;-48
2023/06/10 01:02:46;;;;;;;9.53;8.63;;;;;;;;;;5008233;28;20411;-49
2023/06/10 01:05:12;;;;;;;8.43;7.53;;;;;;;;;;5002948;28;20434;-49
2023/06/10 01:07:53;;;;;;;11.70;8.30;;;;;;;;;;5001099;28;20425;-48
2023/06/10 01:10:39;;;;;;;8.77;7.73;;;;;;;;;;4994985;28;20481;-48
2023/06/10 01:13:08;;;;;;;9.40;8.60;;;;;;;;;;4994512;28;20441;-49
2023/06/10 01:15:35;;;;;;;11.43;9.53;;;;;;;;;;5004868;28;20555;-49
2023/06/10 01:18:02;;;;;;;8.67;7.93;;;;;;;;;;5005510;28;20425;-48
2023/06/10 01:20:29;;;;;;;11.77;9.03;;;;;;;;;;5004679;28;20445;-49
2023/06/10 01:22:57;;;;;;;9.30;8.50;;;;;;;;;;5005280;28;20501;-47
2023/06/10 01:25:27;;;;;;;9.67;8.70;;;;;;;;;;5001807;28;20414;-48
2023/06/10 01:27:55;;;;;;;9.20;8.40;;;;;;;;;;5003978;28;20450;-48
2023/06/10 01:30:23;;;;;;;9.77;8.97;;;;;;;;;;5005937;28;20419;-49
2023/06/10 01:32:50;;;;;;;10.13;9.13;;;;;;;;;;5002036;28;20422;-47
2023/06/10 01:35:17;;;;;;;10.00;9.10;;;;;;;;;;5003786;28;20484;-46
2023/06/10 01:37:45;;;;;;;11.43;8.53;;;;;;;;;;5003298;28;20409;-49
2023/06/10 01:40:12;;;;;;;10.30;9.30;;;;;;;;;;5002452;28;20573;-48
2023/06/10 01:42:38;;;;;;;9.90;9.00;;;;;;;;;;5001054;28;20435;-48
2023/06/10 01:45:04;;;;;;;9.93;9.03;;;;;;;;;;5002040;28;20441;-48
2023/06/10 01:47:30;;;;;;;10.27;9.17;;;;;;;;;;5005782;28;20926;-48
2023/06/10 01:49:56;;;;;;;10.00;9.00;;;;;;;;;;5000417;28;20896;-49
2023/06/10 01:52:22;;;;;;;10.07;9.10;;;;;;;;;;5001337;28;20492;-49
2023/06/10 01:54:48;;;;;;;9.30;8.60;;;;;;;;;;5003236;28;20443;-47
2023/06/10 01:57:14;;;;;;;8.87;8.17;;;;;;;;;;5005504;28;20408;-48
2023/06/10 01:59:42;;;;;;;10.10;9.07;;;;;;;;;;5003416;28;20467;-47
2023/06/10 02:02:08;;;;;;;10.90;9.70;;;;;;;;;;5006374;28;20510;-48
2023/06/10 02:04:34;;;;;;;11.03;9.63;;;;;;;;;;5004449;28;20503;-48
2023/06/10 02:07:03;;;;;;;11.97;9.53;;;;;;;;;;4998609;28;20413;-48
2023/06/10 02:09:29;;;;;;;10.13;9.17;;;;;;;;;;5005081;28;20419;-48
2023/06/10 02:11:55;;;;;;;9.40;8.50;;;;;;;;;;5001167;28;20457;-48
2023/06/10 02:14:21;;;;;;;12.27;10.07;;;;;;;;;;5003270;28;20967;-47
2023/06/10 02:16:47;;;;;;;9.83;8.83;;;;;;;;;;5002855;28;20894;-49
2023/06/10 02:19:13;;;;;;;11.33;9.93;;;;;;;;;;5008069;28;20463;-49
2023/06/10 02:21:39;;;;;;;11.60;9.50;;;;;;;;;;5004717;28;20450;-47
2023/06/10 02:24:06;;;;;;;10.10;9.20;;;;;;;;;;4996888;28;20497;-50
2023/06/10 02:26:32;;;;;;;11.13;10.23;;;;;;;;;;5005042;28;20413;-49
2023/06/10 02:28:57;;;;;;;10.90;9.90;;;;;;;;;;4999534;28;20436;-49
2023/06/10 02:31:25;;;;;;;10.30;9.30;;;;;;;;;;5002094;28;20421;-49
2023/06/10 02:33:51;;;;;;;11.60;10.60;;;;;;;;;;5003078;28;20432;-50
2023/06/10 02:36:17;;;;;;;10.30;9.43;;;;;;;;;;4995360;28;20497;-48
2023/06/10 02:38:43;;;;;;;10.97;9.87;;;;;;;;;;5001462;28;20377;-49
2023/06/10 02:41:09;;;;;;;10.10;9.20;;;;;;;;;;5000987;28;20950;-49
2023/06/10 02:43:35;;;;;;;11.80;9.90;;;;;;;;;;5005436;28;20431;-48
2023/06/10 02:46:01;;;;;;;16.23;10.13;;;;;;;;;;4999841;28;20414;-49
2023/06/10 02:48:27;;;;;;;10.90;9.90;;;;;;;;;;4998984;28;20475;-49
2023/06/10 02:50:53;;;;;;;10.83;9.73;;;;;;;;;;5000372;28;20437;-48
2023/06/10 02:53:19;;;;;;;10.93;9.40;;;;;;;;;;5001181;28;20428;-49
2023/06/10 02:55:45;;;;;;;11.07;9.97;;;;;;;;;;5001761;28;20431;-48
2023/06/10 02:58:11;;;;;;;9.50;8.70;;;;;;;;;;5004896;28;20395;-47
2023/06/10 03:00:37;;;;;;;11.83;10.23;;;;;;;;;;5003811;28;20499;-49
2023/06/10 03:03:04;;;;;;;12.20;10.87;;;;;;;;;;4997827;28;20835;-49
2023/06/10 03:05:30;;;;;;;12.10;10.93;;;;;;;;;;4997587;28;20487;-47
2023/06/10 03:07:56;;;;;;;11.13;9.90;;;;;;;;;;5003054;28;20909;-49
2023/06/10 03:10:22;;;;;;;12.43;11.33;;;;;;;;;;5003265;28;20387;-49
2023/06/10 03:12:48;;;;;;;12.37;10.47;;;;;;;;;;4999516;28;20554;-48
2023/06/10 03:15:15;;;;;;;11.73;10.67;;;;;;;;;;4998853;28;20538;-49
2023/06/10 03:17:41;;;;;;;12.03;10.93;;;;;;;;;;5003647;28;20411;-49
2023/06/10 03:20:10;;;;;;;11.27;10.30;;;;;;;;;;4996272;28;20493;-48
2023/06/10 03:22:37;;;;;;;14.80;11.87;;;;;;;;;;5004266;28;20394;-49
2023/06/10 03:25:03;;;;;;;13.77;12.50;;;;;;;;;;5000718;28;20450;-47
2023/06/10 03:27:30;;;;;;;11.80;10.63;;;;;;;;;;5000408;28;20755;-47
2023/06/10 03:29:56;;;;;;;12.57;11.30;;;;;;;;;;5002014;28;20444;-48
2023/06/10 03:32:22;;;;;;;12.90;11.60;;;;;;;;;;5000794;28;20465;-48
2023/06/10 03:34:48;;;;;;;14.30;10.03;;;;;;;;;;4999866;28;20439;-49
2023/06/10 03:37:15;;;;;;;12.83;11.47;;;;;;;;;;5000410;28;20427;-49
2023/06/10 03:39:41;;;;;;;12.80;11.20;;;;;;;;;;4992585;28;20441;-48
2023/06/10 03:42:07;;;;;;;11.97;10.97;;;;;;;;;;4995768;28;20423;-49
2023/06/10 03:44:33;;;;;;;11.40;10.33;;;;;;;;;;4997885;28;20572;-49
2023/06/10 03:46:59;;;;;;;12.83;11.53;;;;;;;;;;5001187;28;20383;-48
2023/06/10 03:49:28;;;;;;;14.97;12.30;;;;;;;;;;5003055;28;20412;-49
2023/06/10 03:51:54;;;;;;;13.60;12.20;;;;;;;;;;5002846;28;20476;-48
2023/06/10 03:54:21;;;;;;;15.77;12.63;;;;;;;;;;5003140;28;20405;-48
2023/06/10 03:56:48;;;;;;;14.43;11.60;;;;;;;;;;5004514;28;20514;-49
2023/06/10 03:59:14;;;;;;;13.10;10.93;;;;;;;;;;5003416;28;20546;-49
2023/06/10 04:01:41;;;;;;;15.93;12.43;;;;;;;;;;4995688;28;20451;-49
2023/06/10 04:04:07;;;;;;;13.13;11.83;;;;;;;;;;5003572;28;20467;-47
2023/06/10 04:06:33;;;;;;;13.53;11.93;;;;;;;;;;5001323;28;20378;-49
2023/06/10 04:08:59;;;;;;;13.50;12.10;;;;;;;;;;5003093;28;20447;-49
2023/06/10 04:11:25;;;;;;;17.13;13.00;;;;;;;;;;5001012;28;20397;-49
2023/06/10 04:13:51;;;;;;;15.13;12.70;;;;;;;;;;5000951;28;20487;-49
2023/06/10 04:16:17;;;;;;;16.73;13.50;;;;;;;;;;4996622;28;20462;-49
2023/06/10 04:18:43;;;;;;;14.67;13.20;;;;;;;;;;5002832;28;20394;-48
2023/06/10 04:21:09;;;;;;;14.67;13.07;;;;;;;;;;5000901;28;20457;-47
2023/06/10 04:23:38;;;;;;;13.23;11.77;;;;;;;;;;4999032;28;20519;-47
2023/06/10 04:26:05;;;;;;;14.80;13.33;;;;;;;;;;5002022;28;20871;-49
2023/06/10 04:28:31;;;;;;;15.17;13.27;;;;;;;;;;4999922;28;20422;-49
2023/06/10 04:30:57;;;;;;;14.90;13.30;;;;;;;;;;5000032;28;20428;-47
2023/06/10 04:33:24;;;;;;;16.60;14.17;;;;;;;;;;4999776;28;20443;-47
2023/06/10 04:35:50;;;;;;;14.93;13.43;;;;;;;;;;5005097;28;20416;-47
2023/06/10 04:38:16;;;;;;;16.30;14.50;;;;;;;;;;5000307;28;20928;-48
2023/06/10 04:40:42;;;;;;;18.63;14.87;;;;;;;;;;4993295;28;20446;-49
2023/06/10 04:43:08;;;;;;;15.90;13.80;;;;;;;;;;4998935;28;20518;-48
2023/06/10 04:45:34;;;;;;;15.90;12.77;;;;;;;;;;5000905;28;20932;-48
2023/06/10 04:48:00;;;;;;;15.00;13.50;;;;;;;;;;5006354;28;20399;-48
2023/06/10 04:50:26;;;;;;;16.40;14.70;;;;;;;;;;5005527;28;20436;-48
2023/06/10 04:52:52;;;;;;;14.50;13.00;;;;;;;;;;5006839;28;21005;-46
2023/06/10 04:55:18;;;;;;;18.23;14.13;;;;;;;;;;5002521;28;20443;-48
2023/06/10 04:57:44;;;;;;;14.40;12.90;;;;;;;;;;4998909;28;20397;-49
2023/06/10 05:00:10;;;;;;;14.67;13.20;;;;;;;;;;5006264;28;20537;-47
2023/06/10 05:02:36;;;;;;;14.70;13.20;;;;;;;;;;5004481;28;20415;-49
2023/06/10 05:05:02;;;;;;;13.67;12.30;;;;;;;;;;5006129;28;20424;-48
2023/06/10 05:07:28;;;;;;;15.67;13.70;;;;;;;;;;5003405;28;20421;-48
2023/06/10 05:09:54;;;;;;;14.63;13.23;;;;;;;;;;5004080;28;20423;-49
2023/06/10 05:12:20;;;;;;;14.17;12.70;;;;;;;;;;5000421;28;20773;-49
2023/06/10 05:14:46;;;;;;;14.77;13.20;;;;;;;;;;5004444;28;20433;-49
2023/06/10 05:17:12;;;;;;;15.40;13.23;;;;;;;;;;5004677;28;20416;-49
2023/06/10 05:19:38;;;;;;;14.40;12.07;;;;;;;;;;5001610;28;20460;-48
2023/06/10 05:22:05;;;;;;;12.67;11.30;;;;;;;;;;5004953;28;20383;-49
2023/06/10 05:24:31;;;;;;;14.90;11.90;;;;;;;;;;5003139;28;20827;-48
2023/06/10 05:26:56;;;;;;;12.80;11.43;;;;;;;;;;5003356;28;20420;-48
2023/06/10 05:29:22;;;;;;;14.70;11.33;;;;;;;;;;5002361;28;20528;-48
2023/06/10 05:31:48;;;;;;;12.53;10.70;;;;;;;;;;5008083;28;20416;-48
2023/06/10 05:34:14;;;;;;;11.90;10.60;;;;;;;;;;5002984;28;20447;-47
2023/06/10 05:36:40;;;;;;;10.67;9.63;;;;;;;;;;4999974;28;20494;-49
2023/06/10 05:39:06;;;;;;;10.87;9.83;;;;;;;;;;5002553;28;20429;-48
2023/06/10 05:41:32;;;;;;;12.60;10.47;;;;;;;;;;5006088;28;20436;-49
2023/06/10 05:43:58;;;;;;;11.93;10.70;;;;;;;;;;5004244;28;20403;-49
2023/06/10 05:46:24;;;;;;;10.70;9.50;;;;;;;;;;5005076;28;20910;-49
2023/06/10 05:48:50;;;;;;;11.83;10.60;;;;;;;;;;5003719;28;20394;-47
2023/06/10 05:51:16;;;;;;;11.07;10.00;;;;;;;;;;5004040;28;20501;-47
2023/06/10 05:53:42;;;;;;;11.93;9.87;;;;;;;;;;4997378;28;20486;-49
2023/06/10 05:56:08;;;;;;;10.20;9.30;;;;;;;;;;5005275;28;20422;-49
2023/06/10 05:58:34;;;;;;;10.70;9.60;;;;;;;;;;5003548;28;20480;-49
2023/06/10 06:01:00;;;;;;;10.27;9.17;;;;;;;;;;5004536;28;20903;-49
2023/06/10 06:03:28;;;;;;;9.93;8.93;;;;;;;;;;5003146;28;20461;-49
2023/06/10 06:05:54;;;;;;;9.60;8.60;;;;;;;;;;5004411;28;20414;-48
2023/06/10 06:08:20;;;;;;;14.77;9.13;;;;;;;;;;4995045;28;20496;-48
2023/06/10 06:10:47;;;;;;;9.87;8.87;;;;;;;;;;4993481;28;20822;-49
2023/06/10 06:13:13;;;;;;;9.10;8.17;;;;;;;;;;5000661;28;20433;-48
2023/06/10 06:15:39;;;;;;;10.67;8.60;;;;;;;;;;5009731;28;20426;-47
2023/06/10 06:18:05;;;;;;;10.20;8.33;;;;;;;;;;5001370;28;20429;-49
2023/06/10 06:20:31;;;;;;;11.27;8.67;;;;;;;;;;5003169;28;20473;-49
2023/06/10 06:22:57;;;;;;;8.83;7.80;;;;;;;;;;4997805;28;20417;-46
2023/06/10 06:25:23;;;;;;;8.80;8.00;;;;;;;;;;5005020;28;20446;-48
2023/06/10 06:27:49;;;;;;;8.80;7.87;;;;;;;;;;5002565;28;20502;-47
2023/06/10 06:30:15;;;;;;;8.60;7.23;;;;;;;;;;4998909;28;20427;-46
2023/06/10 06:32:41;;;;;;;8.60;7.80;;;;;;;;;;5007554;28;20493;-48
2023/06/10 06:35:07;;;;;;;7.97;7.33;;;;;;;;;;5000246;28;20447;-49
2023/06/10 06:37:34;;;;;;;8.73;7.80;;;;;;;;;;5002882;28;20425;-45
2023/06/10 06:40:00;;;;;;;8.37;7.47;;;;;;;;;;5004871;28;20459;-46
2023/06/10 06:42:26;;;;;;;7.07;6.30;;;;;;;;;;4997003;28;20447;-47
2023/06/10 06:44:52;;;;;;;8.60;7.70;;;;;;;;;;4998397;28;20448;-47
2023/06/10 06:47:19;;;;;;;7.57;6.77;;;;;;;;;;4994958;28;20472;-46
2023/06/10 06:49:46;;;;;;;8.00;7.20;;;;;;;;;;4993110;28;20910;-46
2023/06/10 06:52:12;;;;;;;8.00;7.20;;;;;;;;;;5004602;28;20423;-46
2023/06/10 06:54:38;;;;;;;12.20;7.30;;;;;;;;;;5004550;28;20442;-46
2023/06/10 06:57:05;;;;;;;10.00;6.60;;;;;;;;;;5005229;28;20781;-46
2023/06/10 06:59:32;;;;;;;7.70;6.97;;;;;;;;;;5001061;28;20463;-46
2023/06/10 07:01:58;;;;;;;9.97;6.03;;;;;;;;;;5007010;28;20412;-46
2023/06/10 07:04:24;;;;;;;8.63;6.80;;;;;;;;;;5007021;28;20444;-45
2023/06/10 07:06:50;;;;;;;9.90;6.50;;;;;;;;;;4999986;28;20509;-46
2023/06/10 07:09:16;;;;;;;10.30;6.77;;;;;;;;;;4999951;28;20423;-46
2023/06/10 07:11:42;;;;;;;7.53;6.83;;;;;;;;;;4990749;28;20822;-48
2023/06/10 07:14:08;;;;;;;10.80;7.40;;;;;;;;;;5004127;28;20444;-47
2023/06/10 07:16:34;;;;;;;8.00;6.20;;;;;;;;;;5003095;28;20416;-46
2023/06/10 07:19:00;;;;;;;7.27;6.57;;;;;;;;;;4997466;28;20414;-46
2023/06/10 07:21:28;;;;;;;9.23;6.57;;;;;;;;;;4997558;28;20408;-47
2023/06/10 07:23:54;;;;;;;7.03;6.17;;;;;;;;;;5002277;28;20448;-46
2023/06/10 07:26:22;;;;;;;6.53;5.77;;;;;;;;;;5003858;28;20414;-47
2023/06/10 07:28:48;;;;;;;8.03;6.60;;;;;;;;;;5005584;28;20420;-47
2023/06/10 07:31:14;;;;;;;7.20;6.50;;;;;;;;;;4999075;28;20907;-46
2023/06/10 07:33:40;;;;;;;7.17;6.57;;;;;;;;;;5000235;28;20842;-47
2023/06/10 07:36:06;;;;;;;9.20;5.90;;;;;;;;;;5003624;28;20411;-46
2023/06/10 07:38:32;;;;;;;10.30;6.07;;;;;;;;;;5002345;28;20422;-47
2023/06/10 07:40:58;;;;;;;7.70;6.20;;;;;;;;;;5003835;28;20517;-46
2023/06/10 07:43:24;;;;;;;7.03;6.20;;;;;;;;;;4998817;28;20449;-46
2023/06/10 07:45:50;;;;;;;8.20;6.30;;;;;;;;;;5003732;28;20468;-47
2023/06/10 07:48:16;;;;;;;6.70;5.97;;;;;;;;;;5003652;28;20911;-46
2023/06/10 07:50:42;;;;;;;9.57;6.30;;;;;;;;;;5000859;28;20428;-46
2023/06/10 07:53:08;;;;;;;7.50;6.70;;;;;;;;;;5003611;28;20475;-47
2023/06/10 07:55:34;;;;;;;7.40;6.70;;;;;;;;;;5000096;28;20451;-49
2023/06/10 07:58:00;;;;;;;6.90;5.70;;;;;;;;;;5002496;28;20426;-48
2023/06/10 08:00:26;;;;;;;7.80;5.33;;;;;;;;;;4999704;28;20486;-47
2023/06/10 08:02:52;;;;;;;7.13;6.50;;;;;;;;;;5007432;28;20500;-47
2023/06/10 08:05:18;;;;;;;7.03;6.30;;;;;;;;;;5002874;28;20501;-48
2023/06/10 08:07:45;;;;;;;7.30;6.57;;;;;;;;;;4999493;28;20834;-48
2023/06/10 08:10:11;;;;;;;6.93;6.27;;;;;;;;;;5001485;28;20422;-47
2023/06/10 08:12:37;;;;;;;7.83;5.97;;;;;;;;;;4998911;28;20542;-47
2023/06/10 08:15:03;;;;;;;6.30;5.70;;;;;;;;;;5000735;28;20440;-47
2023/06/10 08:17:31;;;;;;;6.60;6.00;;;;;;;;;;4999220;28;20427;-48
2023/06/10 08:19:57;;;;;;;7.00;6.27;;;;;;;;;;5004987;28;20907;-47
2023/06/10 08:22:23;;;;;;;7.50;5.53;;;;;;;;;;5005827;28;20489;-48
2023/06/10 08:24:49;;;;;;;6.30;5.80;;;;;;;;;;5001301;28;20554;-47
2023/06/10 08:27:15;;;;;;;7.63;6.43;;;;;;;;;;5003303;28;20503;-48
2023/06/10 08:29:41;;;;;;;7.70;6.33;;;;;;;;;;5003682;28;20470;-47
2023/06/10 08:32:07;;;;;;;11.43;6.10;;;;;;;;;;5007152;28;20941;-47
2023/06/10 08:34:35;;;;;;;6.20;5.47;;;;;;;;;;5005736;28;20450;-47
2023/06/10 08:37:01;;;;;;;7.30;6.63;;;;;;;;;;5002786;28;20987;-47
2023/06/10 08:39:27;;;;;;;6.00;5.50;;;;;;;;;;5006421;28;20553;-47
2023/06/10 08:42:06;;;;;;;6.30;5.53;;;;;;;;;;4998768;28;20515;-47
2023/06/10 08:44:33;;;;;;;6.20;5.70;;;;;;;;;;5002535;28;20459;-48
2023/06/10 08:47:00;;;;;;;5.87;5.37;;;;;;;;;;5002714;28;20412;-47
2023/06/10 08:49:27;;;;;;;5.20;4.70;;;;;;;;;;5002919;28;20404;-47
2023/06/10 08:51:57;;;;;;;7.03;5.50;;;;;;;;;;5003363;28;20478;-48
2023/06/10 08:54:26;;;;;;;7.07;5.33;;;;;;;;;;5003721;28;20515;-47
2023/06/10 08:56:54;;;;;;;8.00;4.90;;;;;;;;;;5004386;28;20423;-47
2023/06/10 08:59:20;;;;;;;6.33;5.80;;;;;;;;;;5002925;28;20431;-47
2023/06/10 09:01:47;;;;;;;4.93;4.50;;;;;;;;;;5008954;28;20423;-47
2023/06/10 09:04:14;;;;;;;8.07;5.10;;;;;;;;;;5004011;28;20505;-47
2023/06/10 09:06:40;;;;;;;5.80;5.30;;;;;;;;;;5000983;28;20475;-46
2023/06/10 09:09:07;;;;;;;5.17;4.70;;;;;;;;;;5003711;28;20493;-47
2023/06/10 09:11:33;;;;;;;8.93;5.67;;;;;;;;;;5001661;28;20404;-48
2023/06/10 09:14:00;;;;;;;10.07;5.67;;;;;;;;;;5004898;28;20447;-47
2023/06/10 09:16:26;;;;;;;7.00;5.20;;;;;;;;;;5005999;28;20470;-47
2023/06/10 09:18:54;;;;;;;6.00;5.50;;;;;;;;;;5007172;28;20411;-47
2023/06/10 09:21:23;;;;;;;7.10;5.37;;;;;;;;;;5002771;28;20525;-47
2023/06/10 09:23:49;;;;;;;5.70;5.27;;;;;;;;;;4999043;28;20483;-47
2023/06/10 09:26:15;;;;;;;7.10;5.37;;;;;;;;;;5006132;28;20411;-47
2023/06/10 09:28:51;;;;;;;7.20;5.17;;;;;;;;;;5003879;28;20473;-47
2023/06/10 09:31:18;;;;;;;8.23;5.50;;;;;;;;;;5000397;28;20426;-47
2023/06/10 09:33:45;;;;;;;5.40;5.00;;;;;;;;;;5002369;28;20432;-47
2023/06/10 09:36:12;;;;;;;8.13;5.63;;;;;;;;;;5008829;28;20417;-47
2023/06/10 09:38:38;;;;;;;5.83;4.97;;;;;;;;;;5005956;28;20419;-47
2023/06/10 09:41:04;;;;;;;5.87;5.47;;;;;;;;;;5002283;28;20467;-47
2023/06/10 09:43:40;;;;;;;8.27;5.70;;;;;;;;;;4999052;28;20443;-47
2023/06/10 09:46:06;;;;;;;6.40;5.30;;;;;;;;;;4994558;28;20423;-46
2023/06/10 09:48:36;;;;;;;8.30;4.90;;;;;;;;;;5001596;28;20779;-47
2023/06/10 09:51:01;;;;;;;8.00;5.30;;;;;;;;;;5003429;28;20399;-47
2023/06/10 09:53:28;;;;;;;4.97;4.57;;;;;;;;;;5002395;28;20846;-47
2023/06/10 09:55:54;;;;;;;7.70;5.17;;;;;;;;;;5004138;28;20185;-47
2023/06/10 09:58:33;;;;;;;5.57;5.17;;;;;;;;;;5006427;28;20435;-47
2023/06/10 10:00:59;;;;;;;6.63;4.90;;;;;;;;;;5006319;28;20479;-47
2023/06/10 10:03:25;;;;;;;8.80;4.97;;;;;;;;;;5003347;28;20430;-47
2023/06/10 10:05:58;;;;;;;5.00;4.60;;;;;;;;;;4998523;28;20180;-47
2023/06/10 10:08:24;;;;;;;6.93;5.00;;;;;;;;;;5005604;28;20437;-47
2023/06/10 10:10:50;;;;;;;10.33;4.93;;;;;;;;;;5003643;28;20431;-47
2023/06/10 10:13:16;;;;;;;6.27;5.00;;;;;;;;;;5004961;28;20486;-47
2023/06/10 10:15:44;;;;;;;5.73;5.07;;;;;;;;;;5002098;28;20545;-47
2023/06/10 10:18:13;;;;;;;7.40;4.70;;;;;;;;;;5000267;28;20419;-47
2023/06/10 10:20:44;;;;;;;5.33;4.93;;;;;;;;;;5005115;28;20985;-47
2023/06/10 10:23:13;;;;;;;5.37;4.83;;;;;;;;;;4998165;28;20441;-47
2023/06/10 10:25:41;;;;;;;6.03;4.93;;;;;;;;;;5005071;28;20465;-48
2023/06/10 10:28:15;;;;;;;5.80;5.13;;;;;;;;;;5002078;28;20419;-48
2023/06/10 10:30:43;;;;;;;5.53;5.00;;;;;;;;;;4999588;28;20441;-48
2023/06/10 10:33:13;;;;;;;8.37;6.33;;;;;;;;;;5002206;28;20417;-48
2023/06/10 10:35:39;;;;;;;5.83;4.70;;;;;;;;;;5001557;28;20415;-47
2023/06/10 10:38:05;;;;;;;8.63;5.50;;;;;;;;;;5001491;28;20435;-48
2023/06/10 10:40:32;;;;;;;6.13;5.53;;;;;;;;;;5001122;28;20885;-48
2023/06/10 10:42:59;;;;;;;6.13;5.53;;;;;;;;;;4999369;28;20931;-48
2023/06/10 10:45:27;;;;;;;5.10;4.70;;;;;;;;;;5007678;28;20962;-48
2023/06/10 10:47:55;;;;;;;5.63;5.13;;;;;;;;;;4997975;28;20420;-48
2023/06/10 10:50:21;;;;;;;9.23;4.43;;;;;;;;;;5004531;28;20424;-48
2023/06/10 10:52:55;;;;;;;5.30;4.90;;;;;;;;;;5002771;28;20415;-48
2023/06/10 10:55:21;;;;;;;6.27;5.63;;;;;;;;;;5003568;28;20784;-47
2023/06/10 10:57:55;;;;;;;5.70;5.20;;;;;;;;;;5002326;28;20419;-47
2023/06/10 11:00:29;;;;;;;6.03;5.37;;;;;;;;;;5001569;28;20551;-47
2023/06/10 11:02:58;;;;;;;5.50;5.10;;;;;;;;;;5002608;28;20415;-45
2023/06/10 11:05:32;;;;;;;5.43;5.03;;;;;;;;;;5000791;28;20412;-46
2023/06/10 11:07:58;;;;;;;6.77;5.33;;;;;;;;;;5007495;28;20418;-45
2023/06/10 11:10:34;;;;;;;6.33;5.73;;;;;;;;;;5003383;28;20423;-46
2023/06/10 11:13:00;;;;;;;5.67;5.17;;;;;;;;;;4997353;28;20431;-45
2023/06/10 11:15:28;;;;;;;5.20;4.80;;;;;;;;;;4998521;28;20428;-45
2023/06/10 11:18:10;;;;;;;7.70;5.63;;;;;;;;;;5002723;28;20506;-45
2023/06/10 11:20:45;;;;;;;6.37;5.77;;;;;;;;;;5002569;28;20521;-45
2023/06/10 11:23:11;;;;;;;6.43;5.90;;;;;;;;;;4993657;28;20883;-45
2023/06/10 11:25:39;;;;;;;4.80;4.50;;;;;;;;;;5000693;28;20554;-46
2023/06/10 11:28:17;;;;;;;6.00;5.50;;;;;;;;;;5000735;28;20177;-46
2023/06/10 11:30:43;;;;;;;14.90;6.03;;;;;;;;;;5000606;28;20427;-46
2023/06/10 11:33:09;;;;;;;6.40;5.90;;;;;;;;;;5000573;28;20427;-46
2023/06/10 11:35:36;;;;;;;5.70;5.20;;;;;;;;;;5006467;28;20652;-46
2023/06/10 11:38:02;;;;;;;7.17;5.63;;;;;;;;;;5000557;28;20419;-45
2023/06/10 11:40:30;;;;;;;5.83;5.40;;;;;;;;;;4998192;28;20860;-45
2023/06/10 11:42:56;;;;;;;5.70;5.30;;;;;;;;;;4999186;28;20916;-46
2023/06/10 11:45:22;;;;;;;6.17;5.57;;;;;;;;;;5002444;28;20400;-45
2023/06/10 11:47:58;;;;;;;5.40;4.90;;;;;;;;;;4994658;28;20452;-45
2023/06/10 11:50:31;;;;;;;7.50;4.60;;;;;;;;;;4992835;28;20431;-47
2023/06/10 11:52:58;;;;;;;8.60;5.97;;;;;;;;;;5004697;28;20910;-46
2023/06/10 11:55:24;;;;;;;5.97;5.37;;;;;;;;;;5000653;28;20419;-46
2023/06/10 11:57:57;;;;;;;10.87;5.70;;;;;;;;;;5003460;28;20498;-46
2023/06/10 12:00:23;;;;;;;6.60;5.30;;;;;;;;;;4997314;28;20471;-46
2023/06/10 12:02:57;;;;;;;6.80;5.00;;;;;;;;;;5001839;28;20882;-46
2023/06/10 12:05:23;;;;;;;5.30;4.77;;;;;;;;;;5002730;28;20403;-46
2023/06/10 12:07:49;;;;;;;5.50;4.87;;;;;;;;;;5001257;28;20488;-46
2023/06/10 12:10:16;;;;;;;9.20;5.47;;;;;;;;;;5001830;28;20498;-47
2023/06/10 12:12:42;;;;;;;8.13;5.03;;;;;;;;;;5002232;28;20826;-45
2023/06/10 12:15:09;;;;;;;5.90;5.50;;;;;;;;;;4994096;28;20542;-46
2023/06/10 12:17:36;;;;;;;5.70;5.20;;;;;;;;;;5002759;28;20434;-45
2023/06/10 12:20:03;;;;;;;7.70;5.47;;;;;;;;;;5000015;28;20486;-46
2023/06/10 12:22:44;;;;;;;8.60;5.80;;;;;;;;;;4999993;28;20891;-46
2023/06/10 12:25:11;;;;;;;5.87;5.23;;;;;;;;;;4992614;28;20486;-47
2023/06/10 12:27:38;;;;;;;5.77;5.27;;;;;;;;;;5000089;28;20447;-45
2023/06/10 12:30:05;;;;;;;6.77;5.90;;;;;;;;;;4999530;28;20415;-46
2023/06/10 12:32:38;;;;;;;5.53;5.13;;;;;;;;;;5000075;28;20420;-48
2023/06/10 12:35:05;;;;;;;6.57;5.60;;;;;;;;;;5000207;28;20424;-47
2023/06/10 12:37:33;;;;;;;6.03;5.53;;;;;;;;;;5002416;28;20773;-46
2023/06/10 12:40:00;;;;;;;6.20;5.60;;;;;;;;;;4996792;28;20544;-46
2023/06/10 12:42:26;;;;;;;10.17;5.70;;;;;;;;;;4997352;28;20416;-46
2023/06/10 12:44:56;;;;;;;7.47;5.27;;;;;;;;;;4999189;28;20874;-46
2023/06/10 12:47:29;;;;;;;5.93;5.40;;;;;;;;;;5001474;28;20435;-46
2023/06/10 12:49:56;;;;;;;8.37;5.30;;;;;;;;;;5002260;28;20412;-46
2023/06/10 12:52:22;;;;;;;5.80;5.30;;;;;;;;;;5000941;28;20438;-46
2023/06/10 12:54:48;;;;;;;6.10;5.50;;;;;;;;;;5001600;28;20946;-46
2023/06/10 12:57:14;;;;;;;5.30;4.80;;;;;;;;;;4996746;28;20187;-45
2023/06/10 12:59:42;;;;;;;5.60;5.07;;;;;;;;;;5002939;28;20458;-46
2023/06/10 13:02:08;;;;;;;6.10;5.50;;;;;;;;;;5000633;28;20419;-45
2023/06/10 13:04:34;;;;;;;7.87;5.30;;;;;;;;;;4999181;28;20788;-45
2023/06/10 13:07:00;;;;;;;6.00;5.50;;;;;;;;;;5003335;28;20498;-46
2023/06/10 13:09:26;;;;;;;5.80;5.30;;;;;;;;;;5002351;28;20529;-46
2023/06/10 13:11:52;;;;;;;6.20;5.70;;;;;;;;;;5003494;28;20419;-45
2023/06/10 13:14:18;;;;;;;5.40;5.00;;;;;;;;;;5000435;28;20744;-46
2023/06/10 13:16:44;;;;;;;6.37;5.80;;;;;;;;;;5004580;28;20250;-45
2023/06/10 13:19:11;;;;;;;5.93;5.43;;;;;;;;;;5002409;28;20911;-45
2023/06/10 13:21:37;;;;;;;5.93;5.33;;;;;;;;;;5000575;28;20311;-48
2023/06/10 13:24:03;;;;;;;6.70;5.17;;;;;;;;;;5003041;28;20874;-46
2023/06/10 13:26:29;;;;;;;5.20;4.87;;;;;;;;;;5002870;28;20404;-47
2023/06/10 13:28:55;;;;;;;6.50;5.53;;;;;;;;;;5004538;28;20404;-46
2023/06/10 13:31:21;;;;;;;5.10;4.80;;;;;;;;;;5005643;28;20899;-46
2023/06/10 13:33:47;;;;;;;5.90;5.40;;;;;;;;;;5006291;28;20637;-47
2023/06/10 13:36:13;;;;;;;5.53;5.07;;;;;;;;;;5001081;28;20267;-46
2023/06/10 13:38:39;;;;;;;7.60;5.90;;;;;;;;;;4998346;28;20911;-45
2023/06/10 13:41:05;;;;;;;6.03;5.63;;;;;;;;;;5004534;28;20470;-45
2023/06/10 13:43:31;;;;;;;6.30;5.60;;;;;;;;;;5001379;28;20472;-45
2023/06/10 13:45:57;;;;;;;10.50;4.97;;;;;;;;;;5007900;28;20977;-46
2023/06/10 13:48:24;;;;;;;10.30;5.80;;;;;;;;;;5002467;28;20668;-47
2023/06/10 13:50:50;;;;;;;6.20;5.60;;;;;;;;;;5004320;28;20233;-45
2023/06/10 13:53:16;;;;;;;5.67;5.07;;;;;;;;;;4999554;28;20820;-46
2023/06/10 13:55:42;;;;;;;5.67;5.17;;;;;;;;;;5005258;28;20423;-47
2023/06/10 13:58:08;;;;;;;5.87;5.30;;;;;;;;;;5003141;28;20415;-47
2023/06/10 14:00:34;;;;;;;6.33;5.63;;;;;;;;;;5001637;28;20350;-46
2023/06/10 14:03:00;;;;;;;5.70;5.10;;;;;;;;;;5004281;28;20457;-48
2023/06/10 14:05:26;;;;;;;5.57;5.17;;;;;;;;;;5002202;28;20419;-47
2023/06/10 14:07:52;;;;;;;7.23;4.93;;;;;;;;;;5002519;28;20758;-48
2023/06/10 14:10:18;;;;;;;7.07;5.70;;;;;;;;;;5001917;28;20272;-47
2023/06/10 14:12:44;;;;;;;6.80;5.23;;;;;;;;;;5005631;28;20415;-47
2023/06/10 14:15:10;;;;;;;6.00;5.40;;;;;;;;;;5001847;28;20208;-47
2023/06/10 14:17:36;;;;;;;5.37;5.00;;;;;;;;;;5004179;28;20467;-47
2023/06/10 14:20:02;;;;;;;5.33;4.93;;;;;;;;;;5002147;28;20808;-44
2023/06/10 14:22:28;;;;;;;5.17;4.77;;;;;;;;;;4994212;28;20733;-46
2023/06/10 14:24:54;;;;;;;5.97;5.33;;;;;;;;;;4992543;28;20459;-45
2023/06/10 14:27:20;;;;;;;5.43;5.00;;;;;;;;;;4981961;28;20423;-45
2023/06/10 14:29:46;;;;;;;6.17;5.60;;;;;;;;;;5000866;28;20990;-45
2023/06/10 14:32:13;;;;;;;5.40;4.87;;;;;;;;;;5004981;28;20449;-47
2023/06/10 14:34:41;;;;;;;5.80;5.40;;;;;;;;;;4997281;28;20515;-46